Main page
METAR-TAF:

METAR-TAF

Airports :

Salamanca, Spain

Salamanca Airport

latitude: 40-57N, longitude: 005-30W, elevation: 793 m

Current weather observation

The report was made 40 minutes ago, at 16:00 UTC
Wind 8 kt from the West/Northwest, varying between West/Southwest and North/Northwest
Temperature 28°C
Humidity 28%
Pressure 1017 hPa
Visibility 10 km or more
no clouds below 1500 m and no cumulonimbus

METAR: LESA 221600Z 29008KT 250V340 CAVOK 28/08 Q1017

Time: 18:40 (16:40 UTC)

Forecast

The report was made 5 hours and 40 minutes ago, at 11:00 UTC
Forecast valid from 22 at 12 UTC to 23 at 12 UTC
Wind 5 kt from variable directions
Visibility 10 km or more
no clouds below 1500 m and no cumulonimbus
Temporary
from 22 at 12 UTC to 22 at 19 UTC
Wind 10 kt from the West

TAF: LESA 221100Z 2212/2312 VRB05KT CAVOK TX30/2216Z TN10/2305Z TEMPO 2212/2219 27010KT

Weather observations and forecasts of more than 4000 airports (METAR and TAF reports).

The available stations are represented by yellow and red dots on the map.

Hover mouse over dot to see the name of the station.

Then click to see weather observations and forecasts.

To change the map : click on the green buttons with a black cross to zoom in, on the green button with a dash to zoom out, or on the green arrows for adjacent maps.


METAR-TAF: